Time;durP1;ratioP1;P1;durP2;ratioP2;P2;SDS_P1;SDS_P2;PMS_P1;PMS_P2;Temp;Humidity;BMP_temperature;BMP_pressure;BME280_temperature;BME280_humidity;BME280_pressure;Samples;Min_cycle;Max_cycle;Signal;HPM_P1;HPM_P2
2021/11/05 00:01:38;;;;;;;1.30;1.10;;;9.10;99.90;;;;;;5050804;28;20289;-85
2021/11/05 00:04:04;;;;;;;1.40;1.30;;;9.10;99.90;;;;;;5068469;28;20039;-83
2021/11/05 00:06:30;;;;;;;1.10;1.00;;;9.00;99.90;;;;;;5068262;28;20054;-86
2021/11/05 00:08:55;;;;;;;1.23;1.15;;;9.00;99.90;;;;;;5068772;28;20100;-88
2021/11/05 00:11:21;;;;;;;0.98;0.82;;;9.00;99.90;;;;;;5068199;28;20028;-86
2021/11/05 00:13:47;;;;;;;1.00;1.00;;;9.00;99.90;;;;;;5068812;28;20032;-86
2021/11/05 00:16:12;;;;;;;0.98;0.98;;;9.00;99.90;;;;;;5068167;28;20028;-87
2021/11/05 00:18:38;;;;;;;0.82;0.82;;;9.00;99.90;;;;;;5070257;28;20040;-81
2021/11/05 00:21:04;;;;;;;0.93;0.80;;;8.90;99.90;;;;;;5072320;28;20394;-81
2021/11/05 00:23:29;;;;;;;0.82;0.73;;;8.90;99.90;;;;;;5054353;28;20048;-81
2021/11/05 00:25:55;;;;;;;0.80;0.80;;;8.90;99.90;;;;;;5071821;28;20032;-81
2021/11/05 00:28:21;;;;;;;0.88;0.88;;;8.90;99.90;;;;;;5072204;28;20096;-81
2021/11/05 00:30:47;;;;;;;0.60;0.60;;;8.90;99.90;;;;;;5054067;28;20130;-81
2021/11/05 00:33:13;;;;;;;1.00;1.00;;;8.90;99.90;;;;;;5070188;28;20032;-80
2021/11/05 00:35:39;;;;;;;0.95;0.80;;;8.90;99.90;;;;;;5070789;28;20149;-80
2021/11/05 00:38:04;;;;;;;0.80;0.80;;;8.90;99.90;;;;;;5071371;28;20456;-80
2021/11/05 00:40:31;;;;;;;1.00;1.00;;;8.90;99.90;;;;;;5071744;28;20020;-80
2021/11/05 00:42:57;;;;;;;1.00;1.00;;;8.90;99.90;;;;;;5071781;28;20027;-81
2021/11/05 00:45:23;;;;;;;1.27;1.20;;;8.90;99.90;;;;;;5071920;28;20021;-80
2021/11/05 00:47:49;;;;;;;1.40;1.30;;;8.90;99.90;;;;;;5070522;28;20020;-81
2021/11/05 00:50:14;;;;;;;1.00;0.88;;;8.90;99.90;;;;;;5071680;28;20025;-80
2021/11/05 00:52:40;;;;;;;0.95;0.95;;;8.90;99.90;;;;;;5053853;28;20046;-80
2021/11/05 00:55:07;;;;;;;0.73;0.73;;;8.90;99.90;;;;;;5071954;28;20021;-80
2021/11/05 00:57:33;;;;;;;0.90;0.90;;;9.00;99.90;;;;;;5071765;28;20330;-80
2021/11/05 00:59:58;;;;;;;0.90;0.90;;;9.00;99.90;;;;;;5071787;28;20028;-80
2021/11/05 01:02:24;;;;;;;1.08;0.90;;;9.00;99.90;;;;;;5053658;28;20016;-80
2021/11/05 01:04:50;;;;;;;1.90;1.17;;;9.00;99.90;;;;;;5071462;28;20031;-81
2021/11/05 01:07:16;;;;;;;0.80;0.80;;;9.00;99.90;;;;;;5071633;28;20078;-82
2021/11/05 01:09:42;;;;;;;0.82;0.82;;;9.00;99.90;;;;;;5071594;28;20020;-80
2021/11/05 01:12:08;;;;;;;0.80;0.80;;;9.00;99.90;;;;;;5071507;28;20020;-80
2021/11/05 01:14:34;;;;;;;1.00;1.00;;;9.00;99.90;;;;;;5071633;28;20600;-81
2021/11/05 01:17:01;;;;;;;0.95;0.95;;;9.00;99.90;;;;;;5071787;28;20069;-80
2021/11/05 01:19:27;;;;;;;0.95;0.93;;;9.00;99.90;;;;;;5065901;28;20021;-79
2021/11/05 01:21:53;;;;;;;0.90;0.90;;;9.00;99.90;;;;;;5051494;28;20562;-80
2021/11/05 01:24:18;;;;;;;1.35;1.02;;;9.10;99.90;;;;;;5051510;28;20131;-81
2021/11/05 01:26:44;;;;;;;1.17;1.15;;;9.10;99.90;;;;;;5051680;28;20017;-81
2021/11/05 01:29:10;;;;;;;0.75;0.75;;;9.20;99.90;;;;;;5051592;28;20032;-81
2021/11/05 01:31:36;;;;;;;0.77;0.77;;;9.20;99.90;;;;;;5051431;28;20078;-80
2021/11/05 01:34:04;;;;;;;1.02;1.02;;;9.20;99.90;;;;;;5051500;28;20075;-79
2021/11/05 01:36:30;;;;;;;3.72;0.80;;;9.20;99.90;;;;;;5079656;28;20021;-80
2021/11/05 01:38:56;;;;;;;1.00;1.00;;;9.20;99.90;;;;;;5093417;28;20078;-79
2021/11/05 01:41:21;;;;;;;1.05;1.05;;;9.20;99.90;;;;;;5095547;28;20028;-79
2021/11/05 01:43:48;;;;;;;0.90;0.90;;;9.20;99.90;;;;;;5092232;28;20063;-79
2021/11/05 01:46:17;;;;;;;1.13;0.93;;;9.20;99.90;;;;;;5075458;28;20028;-80
2021/11/05 01:48:42;;;;;;;1.35;1.25;;;9.20;99.90;;;;;;5075478;28;20044;-79
2021/11/05 01:51:08;;;;;;;0.82;0.82;;;9.30;99.90;;;;;;5075490;28;20032;-79
2021/11/05 01:53:34;;;;;;;1.02;1.02;;;9.20;99.90;;;;;;5075552;28;20086;-79
2021/11/05 01:56:00;;;;;;;2.22;0.93;;;9.30;99.90;;;;;;5075194;28;20353;-79
2021/11/05 01:58:25;;;;;;;0.80;0.80;;;9.30;99.90;;;;;;5074948;28;20529;-79
2021/11/05 02:00:51;;;;;;;0.90;0.90;;;9.40;99.90;;;;;;5074976;28;20393;-79
2021/11/05 02:03:17;;;;;;;0.70;0.70;;;9.40;99.90;;;;;;5075115;28;20025;-79
2021/11/05 02:05:46;;;;;;;0.73;0.73;;;9.40;99.90;;;;;;5082561;28;20027;-79
2021/11/05 02:08:12;;;;;;;0.85;0.85;;;9.40;99.90;;;;;;5095326;28;20012;-79
2021/11/05 02:10:38;;;;;;;0.80;0.80;;;9.40;99.90;;;;;;5076907;28;20016;-79
2021/11/05 02:13:04;;;;;;;1.65;0.93;;;9.50;99.90;;;;;;5076540;28;20283;-79
2021/11/05 02:15:30;;;;;;;0.98;0.98;;;9.40;99.90;;;;;;5095113;28;20027;-78
2021/11/05 02:17:56;;;;;;;1.70;1.00;;;9.40;99.90;;;;;;5094787;28;20066;-79
2021/11/05 02:20:25;;;;;;;0.90;0.90;;;9.40;99.90;;;;;;5094795;28;20069;-78
2021/11/05 02:22:52;;;;;;;1.95;0.80;;;9.40;99.90;;;;;;5094701;28;20044;-78
2021/11/05 02:25:19;;;;;;;0.75;0.75;;;9.40;99.90;;;;;;5094995;28;20024;-78
2021/11/05 02:27:45;;;;;;;0.80;0.80;;;9.40;99.90;;;;;;5094569;28;20035;-78
2021/11/05 02:30:12;;;;;;;1.00;0.90;;;9.40;99.90;;;;;;5094674;28;20103;-79
2021/11/05 02:32:39;;;;;;;1.20;1.10;;;9.40;99.90;;;;;;5094830;28;20111;-78
2021/11/05 02:35:06;;;;;;;0.73;0.73;;;9.40;99.90;;;;;;5076351;28;20077;-79
2021/11/05 02:37:31;;;;;;;0.80;0.80;;;9.40;99.90;;;;;;5094505;28;20059;-79
2021/11/05 02:39:57;;;;;;;0.80;0.80;;;9.40;99.90;;;;;;5094513;28;20437;-78
2021/11/05 02:42:23;;;;;;;1.00;1.00;;;9.40;99.90;;;;;;5094488;28;20386;-78
2021/11/05 02:44:49;;;;;;;0.50;0.50;;;9.40;99.90;;;;;;5094387;28;20417;-78
2021/11/05 02:47:15;;;;;;;0.80;0.80;;;9.40;99.90;;;;;;5076366;28;20389;-78
2021/11/05 02:49:41;;;;;;;0.90;0.90;;;9.40;99.90;;;;;;5094146;28;20028;-78
2021/11/05 02:52:07;;;;;;;0.98;0.98;;;9.40;99.90;;;;;;5094211;28;20321;-78
2021/11/05 02:54:33;;;;;;;0.80;0.80;;;9.40;99.90;;;;;;5092931;28;20034;-79
2021/11/05 02:56:59;;;;;;;1.15;0.93;;;9.40;99.90;;;;;;5094228;28;20392;-78
2021/11/05 02:59:24;;;;;;;0.80;0.80;;;9.40;99.90;;;;;;5093961;28;20032;-78
2021/11/05 03:01:50;;;;;;;0.80;0.80;;;9.40;99.90;;;;;;5094115;28;20024;-79
2021/11/05 03:04:16;;;;;;;0.93;0.75;;;9.40;99.90;;;;;;5094173;28;20031;-79
2021/11/05 03:06:43;;;;;;;0.93;0.93;;;9.40;99.90;;;;;;5093905;28;20020;-78
2021/11/05 03:09:11;;;;;;;1.85;1.42;;;9.50;99.90;;;;;;5094111;28;20501;-78
2021/11/05 03:11:37;;;;;;;1.83;1.73;;;9.50;99.90;;;;;;5093781;28;20027;-79
2021/11/05 03:14:03;;;;;;;2.55;1.80;;;9.50;99.90;;;;;;5093663;28;20569;-78
2021/11/05 03:16:29;;;;;;;1.67;1.58;;;9.40;99.90;;;;;;5093948;28;20031;-78
2021/11/05 03:18:54;;;;;;;1.27;1.17;;;9.40;99.90;;;;;;5093581;28;20024;-78
2021/11/05 03:21:20;;;;;;;1.23;1.20;;;9.50;99.90;;;;;;5063056;28;20083;-79
2021/11/05 03:23:46;;;;;;;1.27;1.17;;;9.50;99.90;;;;;;5060930;28;20564;-78
2021/11/05 03:26:12;;;;;;;1.33;1.23;;;9.50;99.90;;;;;;5073665;28;20059;-78
2021/11/05 03:28:37;;;;;;;0.80;0.80;;;9.50;99.90;;;;;;5073159;28;20170;-78
2021/11/05 03:31:04;;;;;;;0.82;0.82;;;9.50;99.90;;;;;;5073287;28;20059;-78
2021/11/05 03:33:30;;;;;;;1.17;0.77;;;9.50;99.90;;;;;;5073367;28;20073;-78
2021/11/05 03:35:55;;;;;;;1.00;1.00;;;9.40;99.90;;;;;;5073196;28;20033;-78
2021/11/05 03:38:21;;;;;;;0.90;0.90;;;9.50;99.90;;;;;;5073088;28;20039;-78
2021/11/05 03:40:47;;;;;;;0.82;0.82;;;9.50;99.90;;;;;;5072931;28;20028;-78
2021/11/05 03:43:13;;;;;;;0.80;0.75;;;9.50;99.90;;;;;;5072985;28;20032;-78
2021/11/05 03:45:38;;;;;;;0.80;0.80;;;9.60;99.90;;;;;;5073198;28;20047;-79
2021/11/05 03:48:07;;;;;;;1.10;1.00;;;9.60;99.90;;;;;;5071497;28;20021;-78
2021/11/05 03:50:33;;;;;;;0.80;0.80;;;9.60;99.90;;;;;;5072325;28;20035;-78
2021/11/05 03:52:58;;;;;;;2.15;1.00;;;9.60;99.90;;;;;;5074147;28;20394;-78
2021/11/05 03:55:24;;;;;;;1.00;1.00;;;9.60;99.90;;;;;;5093069;28;20024;-78
2021/11/05 03:57:53;;;;;;;0.68;0.68;;;9.70;99.90;;;;;;5092922;28;20464;-78
2021/11/05 04:00:20;;;;;;;0.85;0.82;;;9.70;99.90;;;;;;5092877;28;20024;-78
2021/11/05 04:02:46;;;;;;;0.90;0.77;;;9.70;99.90;;;;;;5092425;28;20049;-78
2021/11/05 04:05:13;;;;;;;0.77;0.77;;;9.70;99.90;;;;;;5092976;28;20020;-78
2021/11/05 04:07:39;;;;;;;0.60;0.60;;;9.70;99.90;;;;;;5092835;28;20053;-78
2021/11/05 04:10:05;;;;;;;0.95;0.95;;;9.70;99.90;;;;;;5092795;28;20397;-78
2021/11/05 04:12:31;;;;;;;0.60;0.60;;;9.70;99.90;;;;;;5092570;28;20028;-78
2021/11/05 04:14:57;;;;;;;0.73;0.73;;;9.70;99.90;;;;;;5092684;28;20024;-78
2021/11/05 04:17:22;;;;;;;0.82;0.82;;;9.70;99.90;;;;;;5092860;28;20427;-78
2021/11/05 04:19:48;;;;;;;1.27;0.70;;;9.60;99.90;;;;;;5092449;28;20077;-78
2021/11/05 04:22:14;;;;;;;0.60;0.60;;;9.50;99.90;;;;;;5092295;28;20048;-78
2021/11/05 04:24:40;;;;;;;0.90;0.85;;;9.40;99.90;;;;;;5074267;28;20024;-78
2021/11/05 04:27:09;;;;;;;0.70;0.70;;;9.40;99.90;;;;;;5092395;28;20095;-78
2021/11/05 04:29:35;;;;;;;0.52;0.52;;;9.40;99.90;;;;;;5092384;28;20035;-78
2021/11/05 04:32:03;;;;;;;0.60;0.60;;;9.30;99.90;;;;;;5074242;28;20077;-78
2021/11/05 04:34:29;;;;;;;0.90;0.90;;;9.40;99.90;;;;;;5074314;28;20032;-78
2021/11/05 04:36:55;;;;;;;1.10;0.70;;;9.40;99.90;;;;;;5092318;28;20031;-78
2021/11/05 04:39:24;;;;;;;0.60;0.60;;;9.40;99.90;;;;;;5092168;28;20032;-78
2021/11/05 04:41:50;;;;;;;0.68;0.68;;;9.40;99.90;;;;;;5074073;28;20048;-78
2021/11/05 04:44:15;;;;;;;1.33;1.23;;;9.40;99.90;;;;;;5092225;28;20474;-78
2021/11/05 04:46:42;;;;;;;1.25;1.02;;;9.40;99.90;;;;;;5092204;28;20031;-78
2021/11/05 04:49:07;;;;;;;0.80;0.80;;;9.30;99.90;;;;;;5092303;28;20028;-78
2021/11/05 04:51:33;;;;;;;0.60;0.60;;;9.40;99.90;;;;;;5092103;28;20378;-78
2021/11/05 04:54:00;;;;;;;0.65;0.65;;;9.30;99.90;;;;;;5091846;28;20639;-78
2021/11/05 04:56:26;;;;;;;0.75;0.75;;;9.40;99.90;;;;;;5092169;28;20024;-78
2021/11/05 04:58:52;;;;;;;1.83;1.00;;;9.40;99.90;;;;;;5073787;28;20135;-78
2021/11/05 05:01:18;;;;;;;1.90;0.88;;;9.20;99.90;;;;;;5091849;28;20483;-78
2021/11/05 05:03:44;;;;;;;0.80;0.80;;;9.20;99.90;;;;;;5091984;28;20016;-78
2021/11/05 05:06:10;;;;;;;2.03;0.70;;;9.10;99.90;;;;;;5091736;28;20028;-78
2021/11/05 05:08:36;;;;;;;0.75;0.75;;;9.00;99.90;;;;;;5091756;28;20031;-78
2021/11/05 05:11:02;;;;;;;0.70;0.70;;;9.00;99.90;;;;;;5091878;28;20587;-77
2021/11/05 05:13:28;;;;;;;1.80;0.95;;;9.10;99.90;;;;;;5091727;28;20111;-78
2021/11/05 05:15:53;;;;;;;0.70;0.70;;;9.10;99.90;;;;;;5091619;28;20086;-78
2021/11/05 05:18:22;;;;;;;0.70;0.70;;;9.20;99.90;;;;;;5073718;28;20035;-78
2021/11/05 05:20:49;;;;;;;0.70;0.70;;;9.30;99.90;;;;;;5073431;28;20039;-79
2021/11/05 05:23:18;;;;;;;0.60;0.60;;;9.30;99.90;;;;;;5091452;28;20051;-79
2021/11/05 05:25:44;;;;;;;0.82;0.60;;;9.30;99.90;;;;;;5074161;28;20025;-79
2021/11/05 05:28:10;;;;;;;0.65;0.65;;;9.30;99.90;;;;;;5071563;28;20035;-78
2021/11/05 05:30:35;;;;;;;0.57;0.57;;;9.30;99.90;;;;;;5071434;28;20023;-78
2021/11/05 05:33:01;;;;;;;0.77;0.77;;;9.40;99.50;;;;;;5071396;28;20029;-78
2021/11/05 05:35:27;;;;;;;0.70;0.70;;;9.40;99.30;;;;;;5071377;28;20082;-78
2021/11/05 05:37:56;;;;;;;0.85;0.85;;;9.50;99.40;;;;;;5071301;28;20025;-78
2021/11/05 05:40:22;;;;;;;0.57;0.57;;;9.50;99.30;;;;;;5071291;28;20017;-79
2021/11/05 05:42:48;;;;;;;0.90;0.90;;;9.50;99.20;;;;;;5070788;28;20112;-78
2021/11/05 05:45:15;;;;;;;0.68;0.68;;;9.50;99.40;;;;;;5071225;28;20104;-78
2021/11/05 05:47:41;;;;;;;0.70;0.70;;;9.50;99.30;;;;;;5071130;28;20445;-78
2021/11/05 05:50:13;;;;;;;0.60;0.60;;;9.50;99.20;;;;;;5071355;28;20024;-78
2021/11/05 05:52:39;;;;;;;0.60;0.60;;;9.50;99.10;;;;;;5071375;28;20024;-78
2021/11/05 05:55:08;;;;;;;0.80;0.80;;;9.50;98.90;;;;;;5090112;28;20501;-78
2021/11/05 05:57:33;;;;;;;0.65;0.65;;;9.50;98.90;;;;;;5091554;28;20058;-78
2021/11/05 05:59:59;;;;;;;0.55;0.55;;;9.50;98.50;;;;;;5091388;28;20025;-78
2021/11/05 06:02:27;;;;;;;0.60;0.60;;;9.50;99.00;;;;;;5073142;28;20122;-78
2021/11/05 06:04:53;;;;;;;0.50;0.50;;;9.50;98.60;;;;;;5068399;28;20040;-78
2021/11/05 06:07:19;;;;;;;0.52;0.52;;;9.60;98.30;;;;;;5074338;28;20115;-77
2021/11/05 06:09:45;;;;;;;0.80;0.80;;;9.50;98.60;;;;;;5084558;28;20103;-78
2021/11/05 06:12:11;;;;;;;0.80;0.80;;;9.60;97.90;;;;;;5083439;28;20029;-77
2021/11/05 06:14:36;;;;;;;0.68;0.60;;;9.60;98.40;;;;;;5073848;28;20038;-77
2021/11/05 06:17:03;;;;;;;0.60;0.57;;;9.60;98.40;;;;;;5069256;28;20029;-77
2021/11/05 06:19:29;;;;;;;0.60;0.60;;;9.50;98.10;;;;;;5070548;28;20400;-77
2021/11/05 06:21:55;;;;;;;0.40;0.40;;;9.50;98.60;;;;;;5069599;28;20120;-77
2021/11/05 06:24:22;;;;;;;0.60;0.60;;;9.50;99.40;;;;;;5085040;28;20031;-77
2021/11/05 06:26:49;;;;;;;0.50;0.50;;;9.50;98.40;;;;;;5095820;28;20020;-77
2021/11/05 06:29:15;;;;;;;1.08;0.63;;;9.50;97.90;;;;;;5077868;28;20470;-77
2021/11/05 06:31:42;;;;;;;0.77;0.60;;;9.50;98.30;;;;;;5095422;28;20016;-77
2021/11/05 06:34:08;;;;;;;0.50;0.50;;;9.50;98.40;;;;;;5077551;28;20028;-77
2021/11/05 06:36:34;;;;;;;0.68;0.68;;;9.60;98.10;;;;;;5095729;28;20111;-77
2021/11/05 06:39:01;;;;;;;0.73;0.73;;;9.60;97.50;;;;;;5094475;28;20035;-77
2021/11/05 06:41:26;;;;;;;0.63;0.63;;;9.60;98.00;;;;;;5076003;28;20020;-77
2021/11/05 06:43:53;;;;;;;0.68;0.65;;;9.60;98.50;;;;;;5094192;28;20440;-77
2021/11/05 06:46:19;;;;;;;0.60;0.60;;;9.60;98.50;;;;;;5094513;28;20059;-77
2021/11/05 06:48:45;;;;;;;0.70;0.70;;;9.60;97.90;;;;;;5094552;28;20417;-77
2021/11/05 06:51:11;;;;;;;0.90;0.90;;;9.70;97.80;;;;;;5094595;28;20032;-78
2021/11/05 06:53:37;;;;;;;1.58;0.47;;;9.70;98.50;;;;;;5087932;28;20056;-77
2021/11/05 06:56:04;;;;;;;0.65;0.65;;;9.70;98.40;;;;;;5056290;28;20446;-77
2021/11/05 06:58:34;;;;;;;0.60;0.47;;;9.70;98.80;;;;;;5074044;28;20028;-77
2021/11/05 07:01:01;;;;;;;0.57;0.57;;;9.70;99.10;;;;;;5073883;28;20375;-77
2021/11/05 07:03:26;;;;;;;0.77;0.77;;;9.70;98.10;;;;;;5056241;28;20065;-77
2021/11/05 07:05:52;;;;;;;0.50;0.50;;;9.70;98.70;;;;;;5056415;28;20425;-77
2021/11/05 07:08:18;;;;;;;0.60;0.60;;;9.70;98.30;;;;;;5071220;28;20510;-77
2021/11/05 07:10:45;;;;;;;0.80;0.80;;;9.80;97.90;;;;;;5074427;28;20029;-77
2021/11/05 07:13:11;;;;;;;0.50;0.50;;;9.80;98.00;;;;;;5057110;28;20043;-77
2021/11/05 07:15:38;;;;;;;0.60;0.60;;;9.80;98.10;;;;;;5074733;28;20486;-77
2021/11/05 07:18:04;;;;;;;1.05;1.00;;;9.80;98.20;;;;;;5074944;28;20078;-77
2021/11/05 07:20:32;;;;;;;0.68;0.68;;;9.90;98.30;;;;;;5074930;28;20017;-77
2021/11/05 07:22:59;;;;;;;1.85;0.63;;;9.90;98.30;;;;;;5075994;28;20043;-77
2021/11/05 07:25:24;;;;;;;0.50;0.50;;;9.90;97.60;;;;;;5095006;28;20017;-77
2021/11/05 07:27:50;;;;;;;0.50;0.50;;;10.00;96.60;;;;;;5094867;28;20059;-77
2021/11/05 07:30:16;;;;;;;1.38;0.70;;;10.00;97.40;;;;;;5094782;28;20447;-77
2021/11/05 07:32:45;;;;;;;0.70;0.70;;;10.10;96.40;;;;;;5076045;28;20031;-77
2021/11/05 07:35:12;;;;;;;1.00;1.00;;;10.10;96.50;;;;;;5093557;28;20024;-77
2021/11/05 07:37:37;;;;;;;0.80;0.80;;;10.20;96.50;;;;;;5074598;28;20028;-77
2021/11/05 07:40:04;;;;;;;0.98;0.88;;;10.10;97.00;;;;;;5093550;28;20538;-78
2021/11/05 07:42:30;;;;;;;0.60;0.60;;;10.10;96.90;;;;;;5088120;28;20016;-77
2021/11/05 07:44:56;;;;;;;0.65;0.65;;;10.20;96.40;;;;;;5073226;28;20197;-77
2021/11/05 07:47:23;;;;;;;1.65;0.70;;;10.20;96.80;;;;;;5073263;28;20025;-77
2021/11/05 07:49:50;;;;;;;0.80;0.80;;;10.30;96.60;;;;;;5073065;28;20480;-77
2021/11/05 07:52:18;;;;;;;0.75;0.75;;;10.40;95.80;;;;;;5072963;28;20037;-77
2021/11/05 07:54:47;;;;;;;1.52;1.10;;;10.40;95.40;;;;;;5072944;28;20044;-77
2021/11/05 07:57:14;;;;;;;0.70;0.70;;;10.50;95.00;;;;;;5072929;28;20117;-77
2021/11/05 07:59:40;;;;;;;1.13;1.02;;;10.50;95.20;;;;;;5072795;28;20032;-77
2021/11/05 08:02:06;;;;;;;0.82;0.82;;;10.50;95.40;;;;;;5054732;28;20032;-78
2021/11/05 08:04:31;;;;;;;0.95;0.90;;;10.50;95.30;;;;;;5054954;28;20020;-77
2021/11/05 08:07:00;;;;;;;0.75;0.75;;;10.60;94.40;;;;;;5072727;28;20119;-78
2021/11/05 08:09:26;;;;;;;0.88;0.60;;;10.70;94.70;;;;;;5072217;28;20033;-78
2021/11/05 08:11:52;;;;;;;0.50;0.50;;;10.70;94.20;;;;;;5053218;28;20397;-77
2021/11/05 08:14:18;;;;;;;0.65;0.65;;;10.70;94.10;;;;;;5073660;28;20386;-77
2021/11/05 08:16:44;;;;;;;0.60;0.60;;;10.80;93.60;;;;;;5071101;28;20384;-75
2021/11/05 08:19:10;;;;;;;0.50;0.50;;;10.80;94.10;;;;;;5069962;28;20494;-75
2021/11/05 08:21:36;;;;;;;2.03;0.50;;;10.90;92.90;;;;;;5069954;28;20501;-75
2021/11/05 08:24:03;;;;;;;0.70;0.70;;;10.90;92.90;;;;;;5080519;28;20024;-75
2021/11/05 08:26:32;;;;;;;0.40;0.40;;;11.00;93.40;;;;;;5090917;28;20567;-75
2021/11/05 08:28:59;;;;;;;0.60;0.52;;;11.00;93.10;;;;;;5091761;28;20034;-75
2021/11/05 08:31:25;;;;;;;1.75;0.60;;;11.10;92.80;;;;;;5074108;28;20028;-75
2021/11/05 08:33:52;;;;;;;0.68;0.68;;;11.10;91.20;;;;;;5092271;28;20024;-76
2021/11/05 08:36:22;;;;;;;0.50;0.50;;;11.20;91.30;;;;;;5092527;28;20542;-75
2021/11/05 08:38:48;;;;;;;2.85;0.70;;;11.20;91.90;;;;;;5092085;28;20020;-75
2021/11/05 08:41:17;;;;;;;0.93;0.60;;;11.20;91.60;;;;;;5092159;28;20081;-75
2021/11/05 08:43:50;;;;;;;1.00;1.00;;;11.30;90.80;;;;;;5092224;28;20016;-75
2021/11/05 08:46:17;;;;;;;0.82;0.75;;;11.30;90.20;;;;;;5091955;28;20020;-75
2021/11/05 08:48:48;;;;;;;0.60;0.60;;;11.30;89.80;;;;;;5091828;28;20478;-76
2021/11/05 08:51:14;;;;;;;0.52;0.52;;;11.30;90.40;;;;;;5092006;28;20024;-75
2021/11/05 08:53:41;;;;;;;0.60;0.60;;;11.40;90.50;;;;;;5091717;28;20047;-75
2021/11/05 08:56:07;;;;;;;0.38;0.38;;;11.40;90.00;;;;;;5051820;28;20037;-75
2021/11/05 08:58:37;;;;;;;1.40;0.80;;;11.50;88.40;;;;;;5065156;28;20032;-75
2021/11/05 09:01:04;;;;;;;0.60;0.60;;;11.40;88.60;;;;;;5071800;28;20025;-75
2021/11/05 09:03:30;;;;;;;0.50;0.50;;;11.50;88.60;;;;;;5053764;28;20131;-75
2021/11/05 09:05:56;;;;;;;0.60;0.60;;;11.50;88.00;;;;;;5059714;28;20547;-75
2021/11/05 09:08:22;;;;;;;0.50;0.50;;;11.50;88.10;;;;;;5058388;28;20067;-75
2021/11/05 09:10:48;;;;;;;0.45;0.45;;;11.60;86.20;;;;;;5071462;28;20126;-75
2021/11/05 09:13:14;;;;;;;0.30;0.30;;;11.60;86.90;;;;;;5071579;28;20029;-76
2021/11/05 09:15:40;;;;;;;0.30;0.30;;;11.70;87.40;;;;;;5071341;28;20111;-75
2021/11/05 09:18:08;;;;;;;0.30;0.30;;;11.70;86.50;;;;;;5061959;28;20116;-75
2021/11/05 09:20:36;;;;;;;0.28;0.28;;;11.70;86.40;;;;;;5041120;28;20013;-75
2021/11/05 09:23:01;;;;;;;0.55;0.50;;;11.80;83.60;;;;;;5061051;28;20068;-75
2021/11/05 09:25:36;;;;;;;0.20;0.20;;;11.80;84.40;;;;;;5061800;28;20078;-75
2021/11/05 09:28:03;;;;;;;0.45;0.45;;;11.80;84.00;;;;;;5061193;28;20032;-75
2021/11/05 09:30:29;;;;;;;0.32;0.32;;;11.90;84.70;;;;;;5059924;28;20466;-75
2021/11/05 09:32:56;;;;;;;0.38;0.38;;;11.90;83.90;;;;;;5062742;28;20028;-75
2021/11/05 09:35:23;;;;;;;0.40;0.20;;;11.90;84.20;;;;;;5060540;28;20029;-75
2021/11/05 09:37:51;;;;;;;0.40;0.40;;;12.00;82.50;;;;;;5061681;28;20017;-75
2021/11/05 09:40:19;;;;;;;0.32;0.32;;;12.00;82.20;;;;;;5060172;28;20031;-75
2021/11/05 09:42:48;;;;;;;0.40;0.40;;;12.00;81.70;;;;;;5043745;28;20035;-75
2021/11/05 09:45:18;;;;;;;0.30;0.30;;;12.00;81.30;;;;;;5067092;28;20374;-75
2021/11/05 09:47:44;;;;;;;0.77;0.77;;;12.10;80.50;;;;;;5040178;28;20021;-74
2021/11/05 09:50:13;;;;;;;0.45;0.45;;;12.10;77.70;;;;;;5048146;28;20025;-74
2021/11/05 09:52:39;;;;;;;0.73;0.73;;;12.10;80.30;;;;;;5028527;28;20036;-74
2021/11/05 09:55:08;;;;;;;0.40;0.40;;;12.10;81.50;;;;;;5072963;28;20024;-75
2021/11/05 09:57:35;;;;;;;0.63;0.63;;;12.20;80.30;;;;;;5048354;28;20024;-75
2021/11/05 10:00:00;;;;;;;1.02;0.65;;;12.20;79.90;;;;;;5067830;28;20636;-75
2021/11/05 10:02:26;;;;;;;1.00;0.90;;;12.20;79.50;;;;;;5052347;28;20024;-75
2021/11/05 10:04:52;;;;;;;0.70;0.70;;;12.20;80.80;;;;;;5070823;28;20055;-75
2021/11/05 10:07:18;;;;;;;0.70;0.70;;;12.30;79.70;;;;;;5070079;28;20020;-75
2021/11/05 10:09:50;;;;;;;0.50;0.50;;;12.30;78.40;;;;;;5070953;28;20029;-74
2021/11/05 10:12:18;;;;;;;0.43;0.43;;;12.30;78.60;;;;;;5070294;28;20020;-75
2021/11/05 10:14:53;;;;;;;1.10;0.50;;;12.30;77.10;;;;;;5070240;28;20482;-75
2021/11/05 10:17:19;;;;;;;0.60;0.60;;;12.30;77.10;;;;;;5069876;28;20102;-75
2021/11/05 10:19:56;;;;;;;0.30;0.30;;;12.30;79.00;;;;;;5067428;28;20429;-76
2021/11/05 10:22:37;;;;;;;0.50;0.50;;;12.30;80.20;;;;;;5059373;28;20036;-75
2021/11/05 10:25:31;;;;;;;0.52;0.52;;;12.40;78.20;;;;;;5042785;28;20356;-77
2021/11/05 10:28:16;;;;;;;0.57;0.57;;;12.40;78.50;;;;;;5067788;28;20082;-75
2021/11/05 10:30:44;;;;;;;0.30;0.30;;;12.40;77.60;;;;;;5051936;28;20047;-75
2021/11/05 10:33:12;;;;;;;0.40;0.40;;;12.50;78.50;;;;;;5069678;28;20024;-76
2021/11/05 10:35:44;;;;;;;0.50;0.50;;;12.50;77.80;;;;;;5052072;28;20070;-75
2021/11/05 10:38:12;;;;;;;0.65;0.65;;;12.50;76.60;;;;;;5052574;28;20078;-75
2021/11/05 10:40:56;;;;;;;0.70;0.70;;;12.60;77.60;;;;;;5069448;28;20027;-75
2021/11/05 10:43:30;;;;;;;0.43;0.40;;;12.70;76.90;;;;;;5074268;28;20111;-75
2021/11/05 10:45:56;;;;;;;0.40;0.40;;;12.70;74.60;;;;;;5073960;28;20029;-76
2021/11/05 10:48:23;;;;;;;0.30;0.30;;;12.70;73.70;;;;;;5073852;28;20031;-75
2021/11/05 10:50:52;;;;;;;0.43;0.43;;;12.80;72.30;;;;;;5073867;28;20031;-75
2021/11/05 10:53:40;;;;;;;1.95;0.40;;;12.90;71.20;;;;;;5059933;28;20020;-76
2021/11/05 10:56:12;;;;;;;0.85;0.70;;;12.90;75.00;;;;;;5093393;28;20067;-75
2021/11/05 10:58:40;;;;;;;0.40;0.40;;;13.00;74.70;;;;;;5094005;28;20024;-75
2021/11/05 11:01:15;;;;;;;0.30;0.30;;;13.00;75.00;;;;;;5094189;28;20444;-75
2021/11/05 11:03:45;;;;;;;0.40;0.40;;;13.00;73.30;;;;;;5075824;28;20020;-75
2021/11/05 11:06:12;;;;;;;0.40;0.40;;;13.00;72.00;;;;;;5094010;28;20024;-75
2021/11/05 11:08:54;;;;;;;0.20;0.20;;;13.00;70.90;;;;;;5075799;28;20077;-75
2021/11/05 11:11:26;;;;;;;2.42;0.80;;;13.00;70.40;;;;;;5093494;28;20168;-75
2021/11/05 11:13:56;;;;;;;0.93;0.70;;;13.00;71.50;;;;;;5067094;28;20028;-75
2021/11/05 11:16:31;;;;;;;0.70;0.70;;;13.00;72.40;;;;;;5048870;28;20506;-75
2021/11/05 11:19:04;;;;;;;0.60;0.60;;;13.00;70.60;;;;;;5049051;28;20078;-75
2021/11/05 11:21:38;;;;;;;0.43;0.35;;;13.00;74.00;;;;;;5034083;28;20025;-75
2021/11/05 11:24:09;;;;;;;0.30;0.30;;;13.00;73.90;;;;;;5059887;28;20063;-75
2021/11/05 11:26:38;;;;;;;0.57;0.57;;;13.00;69.80;;;;;;5069219;28;20020;-75
2021/11/05 11:29:07;;;;;;;0.50;0.50;;;13.10;73.90;;;;;;5067397;28;20032;-75
2021/11/05 11:31:34;;;;;;;1.10;1.00;;;13.10;74.10;;;;;;5069402;28;20025;-75
2021/11/05 11:34:03;;;;;;;0.60;0.60;;;13.20;73.20;;;;;;5071513;28;20025;-75
2021/11/05 11:36:50;;;;;;;0.40;0.40;;;13.20;73.50;;;;;;5073238;28;20024;-77
2021/11/05 11:39:18;;;;;;;1.13;1.02;;;13.30;71.00;;;;;;5056326;28;20044;-78
2021/11/05 11:41:45;;;;;;;0.73;0.60;;;13.30;73.40;;;;;;5049244;28;20509;-77
2021/11/05 11:44:17;;;;;;;0.40;0.40;;;13.40;72.50;;;;;;5043190;28;20099;-77
2021/11/05 11:46:53;;;;;;;2.25;0.30;;;13.40;69.30;;;;;;5068460;28;20107;-78
2021/11/05 11:49:34;;;;;;;0.45;0.45;;;13.40;71.60;;;;;;5068181;28;20025;-77
2021/11/05 11:52:00;;;;;;;0.45;0.45;;;13.50;71.20;;;;;;5068381;28;20033;-78
2021/11/05 11:54:29;;;;;;;0.30;0.30;;;13.50;74.10;;;;;;5064203;28;20085;-78
2021/11/05 11:57:08;;;;;;;1.25;0.90;;;13.50;71.80;;;;;;5070639;28;20107;-77
2021/11/05 11:59:34;;;;;;;0.85;0.85;;;13.50;71.50;;;;;;5090749;28;20027;-77
2021/11/05 12:02:00;;;;;;;0.65;0.60;;;13.60;74.10;;;;;;5092891;28;20024;-77
2021/11/05 12:04:34;;;;;;;0.60;0.60;;;13.60;70.80;;;;;;5093000;28;20020;-78
2021/11/05 12:07:02;;;;;;;1.00;0.73;;;13.60;70.40;;;;;;5092705;28;20020;-77
2021/11/05 12:09:32;;;;;;;0.40;0.40;;;13.70;70.30;;;;;;5092655;28;20068;-78
2021/11/05 12:12:19;;;;;;;0.50;0.50;;;13.70;69.00;;;;;;5092704;28;20028;-78
2021/11/05 12:15:00;;;;;;;0.55;0.55;;;13.70;70.60;;;;;;5093269;28;20114;-77
2021/11/05 12:17:28;;;;;;;1.40;0.50;;;13.70;72.10;;;;;;5094290;28;20474;-77
2021/11/05 12:20:04;;;;;;;0.75;0.60;;;13.70;68.90;;;;;;5075657;28;20077;-77
2021/11/05 12:22:31;;;;;;;0.38;0.38;;;13.80;70.70;;;;;;5074916;28;20153;-77
2021/11/05 12:25:20;;;;;;;0.50;0.50;;;13.70;72.10;;;;;;5093892;28;20054;-77
2021/11/05 12:28:20;;;;;;;0.50;0.50;;;13.80;70.20;;;;;;5083317;28;20032;-77
2021/11/05 12:30:48;;;;;;;1.30;0.73;;;13.80;66.70;;;;;;5067112;28;20440;-77
2021/11/05 12:33:30;;;;;;;1.10;0.68;;;13.90;69.90;;;;;;5094030;28;20036;-77
2021/11/05 12:35:57;;;;;;;0.80;0.80;;;13.80;69.10;;;;;;5093869;28;20016;-77
2021/11/05 12:38:23;;;;;;;0.80;0.80;;;13.80;68.80;;;;;;5093424;28;20028;-77
2021/11/05 12:41:01;;;;;;;1.02;0.85;;;13.80;70.10;;;;;;5093329;28;20043;-77
2021/11/05 12:43:26;;;;;;;0.50;0.43;;;13.80;69.10;;;;;;5093763;28;20012;-77
2021/11/05 12:45:57;;;;;;;0.35;0.28;;;13.90;72.10;;;;;;5092930;28;20115;-77
2021/11/05 12:48:45;;;;;;;0.40;0.40;;;13.80;70.50;;;;;;5074970;28;20499;-77
2021/11/05 12:51:21;;;;;;;0.38;0.38;;;13.80;70.00;;;;;;5093289;28;20424;-77
2021/11/05 12:54:01;;;;;;;0.50;0.50;;;13.80;69.00;;;;;;5067277;28;20029;-77
2021/11/05 12:56:29;;;;;;;1.23;1.02;;;13.80;65.90;;;;;;5073335;28;20056;-77